createdAt,value
2019-03-22T00:01:42.823Z,28.50
2019-03-22T00:04:15.443Z,25.10
2019-03-22T00:06:46.000Z,31.67
2019-03-22T00:09:16.689Z,22.23
2019-03-22T00:11:47.234Z,23.83
2019-03-22T00:14:18.930Z,27.80
2019-03-22T00:16:49.494Z,28.10
2019-03-22T00:19:22.906Z,27.40
2019-03-22T00:21:53.639Z,26.70
2019-03-22T00:24:25.826Z,26.87
2019-03-22T00:26:58.312Z,23.40
2019-03-22T00:29:28.959Z,29.43
2019-03-22T00:32:02.130Z,35.63
2019-03-22T00:34:32.675Z,22.40
2019-03-22T00:37:05.790Z,20.37
2019-03-22T00:39:36.422Z,28.90
2019-03-22T00:42:09.776Z,17.97
2019-03-22T00:44:40.389Z,25.77
2019-03-22T00:47:12.829Z,20.60
2019-03-22T00:49:46.513Z,26.77
2019-03-22T00:52:20.595Z,18.57
2019-03-22T00:54:51.122Z,22.90
2019-03-22T00:57:28.426Z,25.23
2019-03-22T00:59:57.634Z,22.03
2019-03-22T01:02:29.581Z,23.33
2019-03-22T01:05:00.372Z,20.33
2019-03-22T01:07:31.699Z,22.73
2019-03-22T01:10:03.372Z,22.70
2019-03-22T01:12:34.024Z,23.40
2019-03-22T01:15:06.157Z,29.10
2019-03-22T01:17:36.700Z,26.67
2019-03-22T01:20:09.805Z,34.30
2019-03-22T01:22:40.405Z,28.20
2019-03-22T01:25:19.748Z,29.90
2019-03-22T01:27:50.354Z,36.40
2019-03-22T01:30:20.905Z,26.97
2019-03-22T01:32:53.013Z,28.57
2019-03-22T01:35:23.638Z,31.90
2019-03-22T01:37:57.070Z,28.83
2019-03-22T01:40:29.992Z,29.63
2019-03-22T01:43:00.516Z,31.43
2019-03-22T01:45:31.166Z,26.20
2019-03-22T01:48:04.293Z,25.47
2019-03-22T01:50:35.566Z,30.67
2019-03-22T01:53:06.079Z,25.13
2019-03-22T01:55:41.593Z,25.07
2019-03-22T01:58:12.216Z,28.47
2019-03-22T02:00:44.781Z,28.37
2019-03-22T02:03:16.686Z,31.13
2019-03-22T02:05:49.372Z,42.97
2019-03-22T02:08:23.062Z,31.80
2019-03-22T02:10:54.692Z,31.87
2019-03-22T02:13:26.347Z,29.00
2019-03-22T02:15:58.252Z,27.23
2019-03-22T02:18:30.094Z,24.53
2019-03-22T02:21:01.714Z,25.63
2019-03-22T02:23:34.056Z,24.73
2019-03-22T02:26:04.594Z,19.60
2019-03-22T02:28:36.320Z,24.87
2019-03-22T02:31:13.714Z,31.77
2019-03-22T02:33:42.350Z,35.47
2019-03-22T02:36:15.017Z,29.33
2019-03-22T02:38:47.284Z,33.30
2019-03-22T02:41:18.040Z,28.17
2019-03-22T02:43:48.748Z,24.83
2019-03-22T02:46:19.346Z,27.30
2019-03-22T02:48:50.115Z,24.13
2019-03-22T02:51:20.792Z,25.73
2019-03-22T02:53:51.387Z,26.03
2019-03-22T02:56:21.905Z,31.40
2019-03-22T02:58:52.454Z,22.77
2019-03-22T03:01:23.019Z,20.83
2019-03-22T03:03:57.887Z,19.57
2019-03-22T03:06:28.466Z,26.20
2019-03-22T03:09:00.907Z,26.23
2019-03-22T03:11:32.815Z,32.90
2019-03-22T03:14:09.589Z,25.77
2019-03-22T03:16:40.356Z,32.53
2019-03-22T03:19:15.355Z,32.70
2019-03-22T03:21:45.877Z,21.90
2019-03-22T03:24:19.964Z,26.20
2019-03-22T03:26:51.508Z,22.50
2019-03-22T03:29:26.021Z,17.93
2019-03-22T03:31:58.245Z,24.90
2019-03-22T03:34:28.866Z,23.67
2019-03-22T03:37:02.624Z,20.63
2019-03-22T03:39:34.912Z,22.33
2019-03-22T03:42:05.905Z,20.93
2019-03-22T03:44:36.525Z,24.90
2019-03-22T03:47:10.275Z,22.77
2019-03-22T03:49:41.012Z,21.60
2019-03-22T03:52:11.653Z,26.53
2019-03-22T03:54:43.820Z,28.27
2019-03-22T03:57:14.335Z,21.33
2019-03-22T03:59:45.032Z,20.20
2019-03-22T04:02:15.647Z,21.27
2019-03-22T04:04:46.226Z,20.87
2019-03-22T04:07:18.522Z,26.23
2019-03-22T04:09:49.155Z,26.93
2019-03-22T04:12:20.985Z,26.57
2019-03-22T04:14:52.673Z,21.80
2019-03-22T04:17:24.397Z,23.17
2019-03-22T04:19:58.265Z,22.73
2019-03-22T04:22:31.861Z,27.63
2019-03-22T04:25:02.488Z,36.90
2019-03-22T04:27:33.061Z,20.93
2019-03-22T04:30:03.635Z,24.63
2019-03-22T04:32:35.257Z,35.07
2019-03-22T04:35:06.023Z,28.53
2019-03-22T04:37:36.566Z,29.50
2019-03-22T04:40:20.854Z,35.07
2019-03-22T04:42:51.396Z,36.07
2019-03-22T04:45:25.684Z,34.00
2019-03-22T04:48:02.394Z,32.63
2019-03-22T04:50:38.027Z,31.70
2019-03-22T04:53:13.937Z,33.03
2019-03-22T04:55:48.832Z,27.87
2019-03-22T04:58:23.009Z,31.43
2019-03-22T05:00:55.425Z,27.00
2019-03-22T05:03:27.133Z,26.90
2019-03-22T05:06:02.461Z,26.17
2019-03-22T05:08:36.958Z,31.03
2019-03-22T05:11:14.934Z,23.40
2019-03-22T05:13:48.315Z,27.23
2019-03-22T05:16:20.472Z,25.10
2019-03-22T05:18:52.888Z,26.67
2019-03-22T05:21:33.484Z,28.90
2019-03-22T05:24:04.125Z,31.20
2019-03-22T05:26:38.121Z,28.70
2019-03-22T05:29:11.582Z,36.03
2019-03-22T05:32:09.329Z,30.43
2019-03-22T05:34:41.537Z,41.00
2019-03-22T05:37:15.858Z,32.83
2019-03-22T05:39:47.695Z,32.53
2019-03-22T05:42:22.084Z,33.47
2019-03-22T05:44:52.752Z,29.13
2019-03-22T05:47:23.268Z,29.00
2019-03-22T05:49:55.023Z,30.83
2019-03-22T05:52:27.177Z,26.13
2019-03-22T05:54:57.737Z,24.20
2019-03-22T05:57:31.652Z,23.30
2019-03-22T06:00:05.047Z,27.67
2019-03-22T06:02:35.641Z,23.20
2019-03-22T06:05:08.099Z,29.60
2019-03-22T06:07:38.857Z,23.80
2019-03-22T06:10:15.323Z,27.40
2019-03-22T06:12:49.151Z,27.67
2019-03-22T06:15:23.663Z,21.70
2019-03-22T06:17:57.949Z,21.80
2019-03-22T06:20:33.231Z,17.70
2019-03-22T06:23:05.433Z,19.43
2019-03-22T06:25:36.129Z,20.27
2019-03-22T06:28:08.302Z,18.97
2019-03-22T06:30:41.225Z,18.93
2019-03-22T06:33:11.749Z,18.70
2019-03-22T06:35:45.208Z,18.70
2019-03-22T06:38:15.745Z,19.40
2019-03-22T06:40:46.348Z,19.97
2019-03-22T06:43:16.888Z,21.40
2019-03-22T06:45:51.227Z,22.77
2019-03-22T06:48:21.782Z,33.07
2019-03-22T06:50:56.930Z,34.57
2019-03-22T06:53:27.515Z,28.77
2019-03-22T06:55:59.816Z,31.03
2019-03-22T06:58:30.355Z,25.50
2019-03-22T07:01:00.901Z,30.50
2019-03-22T07:03:33.888Z,22.27
2019-03-22T07:06:05.466Z,22.87
2019-03-22T07:08:36.163Z,21.20
2019-03-22T07:11:09.618Z,21.43
2019-03-22T07:13:41.490Z,21.80
2019-03-22T07:16:12.044Z,21.50
2019-03-22T07:18:46.972Z,20.90
2019-03-22T07:21:17.535Z,22.60
2019-03-22T07:23:49.160Z,28.77
2019-03-22T07:26:20.859Z,20.90
2019-03-22T07:28:51.404Z,19.80
2019-03-22T07:31:21.956Z,19.00
2019-03-22T07:33:53.857Z,19.63
2019-03-22T07:36:26.406Z,20.13
2019-03-22T07:38:59.698Z,17.90
2019-03-22T07:41:30.239Z,14.57
2019-03-22T07:44:00.777Z,13.47
2019-03-22T07:46:31.401Z,13.00
2019-03-22T07:49:01.923Z,13.90
2019-03-22T07:51:33.487Z,11.27
2019-03-22T07:54:04.027Z,12.10
2019-03-22T07:56:37.919Z,13.40
2019-03-22T07:59:09.846Z,12.03
2019-03-22T08:01:40.711Z,12.90
2019-03-22T08:04:12.803Z,13.40
2019-03-22T08:06:58.085Z,13.10
2019-03-22T08:09:19.111Z,13.00
2019-03-22T08:11:50.266Z,14.10
2019-03-22T08:14:22.690Z,12.70
2019-03-22T08:16:53.219Z,13.83
2019-03-22T08:19:26.999Z,13.87
2019-03-22T08:21:57.666Z,13.80
2019-03-22T08:24:30.985Z,15.00
2019-03-22T08:27:07.865Z,15.40
2019-03-22T08:29:44.795Z,15.33
2019-03-22T08:32:18.321Z,15.10
2019-03-22T08:34:48.931Z,14.63
2019-03-22T08:37:19.502Z,13.67
2019-03-22T08:39:55.777Z,12.10
2019-03-22T08:42:25.809Z,11.77
2019-03-22T08:44:58.891Z,11.90
2019-03-22T08:47:34.287Z,11.63
2019-03-22T08:50:01.041Z,16.47
2019-03-22T08:52:32.035Z,10.50
2019-03-22T08:55:02.631Z,10.07
2019-03-22T08:57:33.213Z,9.70
2019-03-22T09:00:05.335Z,10.93
2019-03-22T09:02:36.021Z,10.87
2019-03-22T09:05:07.256Z,10.27
2019-03-22T09:07:37.813Z,12.00
2019-03-22T09:10:13.314Z,9.97
2019-03-22T09:12:43.963Z,10.10
2019-03-22T09:15:14.821Z,11.17
2019-03-22T09:17:45.384Z,9.77
2019-03-22T09:20:16.163Z,9.20
2019-03-22T09:22:46.800Z,9.07
2019-03-22T09:25:18.633Z,8.47
2019-03-22T09:27:49.343Z,8.90
2019-03-22T09:30:20.031Z,9.27
2019-03-22T09:32:50.675Z,9.00
2019-03-22T09:35:21.289Z,9.13
2019-03-22T09:37:52.098Z,9.33
2019-03-22T09:40:22.706Z,8.97
2019-03-22T09:42:53.428Z,8.67
2019-03-22T09:45:24.120Z,8.00
2019-03-22T09:47:54.775Z,9.57
2019-03-22T09:50:25.471Z,8.60
2019-03-22T09:52:56.125Z,9.60
2019-03-22T09:55:26.728Z,8.20
2019-03-22T09:57:57.590Z,8.43
2019-03-22T10:00:32.846Z,11.43
2019-03-22T10:03:04.695Z,9.83
2019-03-22T10:05:35.275Z,10.03
2019-03-22T10:08:06.037Z,9.67
2019-03-22T10:10:36.723Z,8.53
2019-03-22T10:13:07.329Z,13.13
2019-03-22T10:15:38.013Z,8.33
2019-03-22T10:18:08.625Z,9.77
2019-03-22T10:20:39.334Z,8.97
2019-03-22T10:23:10.182Z,10.33
2019-03-22T10:25:40.777Z,10.40
2019-03-22T10:28:11.378Z,11.40
2019-03-22T10:30:41.957Z,12.80
2019-03-22T10:33:22.081Z,15.73
2019-03-22T10:35:44.786Z,14.03
2019-03-22T10:38:16.624Z,14.37
2019-03-22T10:40:47.900Z,13.97
2019-03-22T10:43:18.547Z,13.87
2019-03-22T10:45:49.157Z,13.87
2019-03-22T10:48:19.695Z,15.77
2019-03-22T10:50:50.465Z,14.60
2019-03-22T10:53:21.984Z,13.83
2019-03-22T10:55:52.499Z,14.53
2019-03-22T10:58:23.051Z,14.93
2019-03-22T11:00:53.686Z,15.05
2019-03-22T11:03:24.228Z,14.17
2019-03-22T11:05:54.884Z,14.23
2019-03-22T11:08:25.452Z,14.60
2019-03-22T11:10:57.760Z,14.40
2019-03-22T11:13:28.287Z,15.07
2019-03-22T11:16:00.619Z,14.80
2019-03-22T11:18:37.394Z,14.00
2019-03-22T11:21:05.465Z,14.57
2019-03-22T11:23:35.766Z,14.60
2019-03-22T11:26:06.483Z,14.93
2019-03-22T11:28:37.102Z,16.87
2019-03-22T11:31:09.124Z,18.57
2019-03-22T11:33:41.559Z,15.97
2019-03-22T11:36:12.208Z,15.07
2019-03-22T11:38:42.861Z,16.07
2019-03-22T11:41:15.816Z,15.17
2019-03-22T11:43:46.370Z,15.60
2019-03-22T11:46:16.930Z,13.90
2019-03-22T11:48:49.088Z,15.27
2019-03-22T11:51:20.257Z,15.70
2019-03-22T11:53:50.896Z,13.63
2019-03-22T11:56:21.528Z,14.57
2019-03-22T11:58:52.147Z,16.07
2019-03-22T12:01:22.923Z,13.83
2019-03-22T12:03:53.738Z,13.90
2019-03-22T12:06:24.263Z,17.40
2019-03-22T12:08:56.107Z,14.63
2019-03-22T12:11:27.392Z,15.27
2019-03-22T12:13:57.984Z,16.90
2019-03-22T12:16:28.672Z,14.90
2019-03-22T12:18:59.322Z,15.73
2019-03-22T12:21:31.468Z,14.70
2019-03-22T12:24:02.207Z,16.07
2019-03-22T12:26:34.527Z,13.03
2019-03-22T12:29:05.169Z,13.40
2019-03-22T12:31:35.861Z,14.37
2019-03-22T12:34:08.033Z,14.50
2019-03-22T12:36:39.779Z,15.20
2019-03-22T12:39:16.805Z,14.23
2019-03-22T12:41:49.419Z,18.30
2019-03-22T12:44:25.983Z,13.17
2019-03-22T12:46:56.643Z,14.00
2019-03-22T12:49:27.209Z,14.30
2019-03-22T12:51:57.860Z,16.37
2019-03-22T12:54:28.411Z,13.50
2019-03-22T12:57:04.573Z,17.00
2019-03-22T12:59:35.255Z,12.10
2019-03-22T13:02:05.829Z,13.27
2019-03-22T13:04:36.457Z,12.70
2019-03-22T13:07:07.169Z,15.03
2019-03-22T13:09:37.842Z,14.03
2019-03-22T13:12:08.475Z,13.87
2019-03-22T13:14:43.138Z,12.30
2019-03-22T13:17:16.830Z,13.37
2019-03-22T13:19:47.367Z,13.70
2019-03-22T13:22:17.994Z,13.00
2019-03-22T13:24:50.192Z,17.90
2019-03-22T13:27:23.978Z,13.63
2019-03-22T13:29:58.935Z,14.70
2019-03-22T13:32:29.595Z,17.10
2019-03-22T13:35:00.320Z,14.77
2019-03-22T13:37:31.052Z,13.87
2019-03-22T13:40:01.612Z,14.50
2019-03-22T13:42:33.424Z,15.50
2019-03-22T13:45:04.628Z,12.90
2019-03-22T13:47:35.131Z,16.60
2019-03-22T13:50:07.472Z,13.60
2019-03-22T13:52:38.076Z,16.20
2019-03-22T13:55:10.184Z,18.20
2019-03-22T13:57:41.110Z,14.60
2019-03-22T14:00:12.884Z,12.37
2019-03-22T14:02:44.885Z,13.30
2019-03-22T14:05:15.899Z,13.30
2019-03-22T14:07:49.356Z,18.73
2019-03-22T14:10:38.751Z,13.87
2019-03-22T14:13:09.365Z,15.03
2019-03-22T14:15:42.547Z,15.50
2019-03-22T14:18:13.160Z,14.77
2019-03-22T14:20:43.719Z,13.63
2019-03-22T14:23:14.384Z,16.87
2019-03-22T14:25:44.994Z,14.20
2019-03-22T14:28:17.309Z,15.60
2019-03-22T14:30:49.280Z,14.83
2019-03-22T14:33:23.844Z,14.03
2019-03-22T14:35:54.545Z,14.40
2019-03-22T14:38:25.165Z,16.47
2019-03-22T14:40:55.861Z,14.73
2019-03-22T14:43:28.571Z,15.37
2019-03-22T14:46:00.950Z,14.80
2019-03-22T14:48:31.559Z,17.77
2019-03-22T14:51:02.230Z,14.93
2019-03-22T14:53:34.963Z,14.10
2019-03-22T14:56:05.659Z,16.87
2019-03-22T14:58:36.261Z,14.37
2019-03-22T15:01:06.898Z,18.30
2019-03-22T15:03:37.567Z,15.23
2019-03-22T15:06:08.119Z,15.73
2019-03-22T15:08:38.739Z,22.13
2019-03-22T15:11:09.407Z,14.50
2019-03-22T15:13:58.980Z,15.53
2019-03-22T15:16:47.428Z,13.67
2019-03-22T15:19:42.666Z,14.93
2019-03-22T15:22:23.447Z,15.97
2019-03-22T15:25:13.455Z,14.60
2019-03-22T15:28:12.199Z,15.10
2019-03-22T15:31:10.580Z,16.63
2019-03-22T15:34:00.155Z,16.00
2019-03-22T15:36:56.680Z,15.63
2019-03-22T15:39:44.923Z,15.43
2019-03-22T15:42:15.625Z,14.63
2019-03-22T15:44:46.161Z,13.93
2019-03-22T15:47:16.702Z,14.43
2019-03-22T15:49:47.344Z,16.33
2019-03-22T15:52:17.962Z,15.40
2019-03-22T15:54:48.534Z,14.30
2019-03-22T15:57:19.067Z,16.50
2019-03-22T15:59:51.090Z,15.10
2019-03-22T16:02:21.704Z,14.33
2019-03-22T16:04:52.344Z,15.33
2019-03-22T16:07:23.044Z,21.00
2019-03-22T16:09:53.642Z,16.40
2019-03-22T16:12:29.076Z,15.93
2019-03-22T16:14:56.702Z,16.53
2019-03-22T16:17:29.135Z,20.37
2019-03-22T16:19:59.836Z,18.37
2019-03-22T16:22:30.484Z,21.57
2019-03-22T16:25:01.124Z,21.40
2019-03-22T16:27:33.584Z,21.57
2019-03-22T16:30:05.081Z,19.47
2019-03-22T16:32:35.764Z,22.13
2019-03-22T16:35:10.778Z,17.90
2019-03-22T16:37:47.171Z,18.60
2019-03-22T16:40:24.347Z,13.67
2019-03-22T16:42:55.763Z,19.93
2019-03-22T16:45:37.836Z,14.77
2019-03-22T16:48:12.351Z,15.83
2019-03-22T16:50:43.413Z,15.77
2019-03-22T16:53:14.076Z,21.53
2019-03-22T16:55:50.023Z,17.40
2019-03-22T16:58:20.745Z,15.70
2019-03-22T17:00:51.417Z,16.50
2019-03-22T17:03:22.123Z,21.30
2019-03-22T17:05:52.746Z,15.43
2019-03-22T17:08:23.352Z,18.00
2019-03-22T17:10:53.920Z,23.20
2019-03-22T17:13:24.673Z,26.00
2019-03-22T17:15:55.307Z,20.40
2019-03-22T17:18:25.973Z,24.50
2019-03-22T17:20:57.802Z,27.43
2019-03-22T17:23:28.405Z,22.23
2019-03-22T17:25:59.028Z,25.17
2019-03-22T17:28:29.589Z,23.00
2019-03-22T17:31:00.219Z,20.67
2019-03-22T17:33:30.843Z,24.50
2019-03-22T17:36:01.380Z,24.53
2019-03-22T17:38:32.000Z,29.90
2019-03-22T17:41:02.705Z,22.93
2019-03-22T17:43:33.351Z,32.57
2019-03-22T17:46:03.983Z,37.67
2019-03-22T17:48:34.543Z,30.30
2019-03-22T17:51:05.287Z,28.10
2019-03-22T17:53:35.961Z,33.13
2019-03-22T17:56:09.417Z,28.93
2019-03-22T17:58:41.812Z,26.73
2019-03-22T18:01:12.552Z,23.00
2019-03-22T18:03:43.164Z,25.33
2019-03-22T18:06:13.708Z,30.40
2019-03-22T18:08:45.727Z,24.30
2019-03-22T18:11:16.319Z,28.33
2019-03-22T18:13:48.513Z,25.20
2019-03-22T18:16:20.401Z,31.37
2019-03-22T18:18:51.131Z,25.67
2019-03-22T18:21:22.043Z,38.60
2019-03-22T18:23:54.280Z,36.00
2019-03-22T18:26:25.795Z,37.23
2019-03-22T18:29:01.340Z,33.63
2019-03-22T18:31:31.947Z,27.93
2019-03-22T18:34:02.577Z,35.63
2019-03-22T18:36:36.251Z,31.50
2019-03-22T18:39:10.900Z,32.40
2019-03-22T18:41:41.445Z,31.47
2019-03-22T18:44:12.074Z,30.70
2019-03-22T18:46:43.894Z,30.20
2019-03-22T18:49:15.536Z,31.43
2019-03-22T18:51:46.166Z,29.70
2019-03-22T18:54:16.720Z,33.77
2019-03-22T18:56:47.462Z,24.97
2019-03-22T18:59:19.969Z,29.57
2019-03-22T19:01:53.094Z,22.43
2019-03-22T19:04:23.091Z,32.80
2019-03-22T19:06:58.633Z,22.90
2019-03-22T19:09:29.274Z,24.20
2019-03-22T19:12:01.253Z,24.43
2019-03-22T19:14:32.033Z,24.63
2019-03-22T19:17:02.550Z,26.80
2019-03-22T19:19:36.360Z,22.70
2019-03-22T19:22:07.370Z,30.00
2019-03-22T19:24:38.038Z,34.50
2019-03-22T19:27:08.706Z,84.27
2019-03-22T19:29:40.524Z,51.63
2019-03-22T19:32:13.822Z,36.00
2019-03-22T19:34:54.281Z,41.60
2019-03-22T19:37:20.597Z,35.00
2019-03-22T19:39:51.267Z,32.67
2019-03-22T19:42:21.892Z,39.40
2019-03-22T19:44:54.111Z,34.73
2019-03-22T19:47:24.761Z,35.20
2019-03-22T19:49:55.446Z,27.93
2019-03-22T19:52:26.625Z,35.40
2019-03-22T19:54:57.367Z,30.20
2019-03-22T19:57:28.046Z,35.10
2019-03-22T20:00:00.343Z,36.40
2019-03-22T20:02:31.097Z,64.47
2019-03-22T20:05:04.927Z,33.73
2019-03-22T20:07:35.921Z,33.50
2019-03-22T20:10:10.533Z,32.43
2019-03-22T20:12:41.639Z,32.87
2019-03-22T20:15:13.893Z,30.23
2019-03-22T20:17:44.471Z,31.87
2019-03-22T20:20:15.459Z,31.43
2019-03-22T20:22:49.859Z,28.87
2019-03-22T20:25:20.148Z,32.63
2019-03-22T20:27:55.146Z,32.33
2019-03-22T20:30:25.861Z,35.70
2019-03-22T20:32:56.427Z,34.70
2019-03-22T20:35:27.129Z,27.90
2019-03-22T20:37:57.773Z,28.37
2019-03-22T20:40:31.638Z,30.33
2019-03-22T20:43:02.285Z,31.50
2019-03-22T20:45:33.923Z,30.60
2019-03-22T20:48:06.819Z,34.83
2019-03-22T20:50:39.146Z,28.93
2019-03-22T20:53:09.810Z,40.63
2019-03-22T20:55:40.436Z,32.47
2019-03-22T20:58:11.372Z,32.73
2019-03-22T21:00:42.112Z,34.40
2019-03-22T21:03:12.762Z,33.63
2019-03-22T21:05:44.981Z,33.50
2019-03-22T21:08:17.201Z,32.80
2019-03-22T21:10:51.849Z,36.43
2019-03-22T21:13:24.212Z,33.33
2019-03-22T21:15:54.816Z,34.60
2019-03-22T21:18:25.941Z,32.30
2019-03-22T21:20:58.790Z,35.23
2019-03-22T21:23:36.235Z,38.60
2019-03-22T21:26:02.111Z,34.07
2019-03-22T21:28:33.020Z,35.00
2019-03-22T21:31:03.738Z,37.83
2019-03-22T21:33:34.353Z,44.33
2019-03-22T21:36:04.907Z,42.73
2019-03-22T21:38:35.514Z,35.17
2019-03-22T21:41:06.130Z,35.40
2019-03-22T21:43:38.482Z,43.47
2019-03-22T21:46:09.117Z,34.80
2019-03-22T21:48:39.807Z,31.50
2019-03-22T21:51:10.433Z,33.77
2019-03-22T21:53:42.090Z,36.20
2019-03-22T21:56:20.542Z,37.20
2019-03-22T21:58:54.737Z,30.63
2019-03-22T22:01:28.817Z,34.07
2019-03-22T22:04:02.238Z,37.20
2019-03-22T22:06:33.797Z,33.97
2019-03-22T22:09:08.011Z,33.20
2019-03-22T22:11:38.718Z,34.20
2019-03-22T22:14:09.423Z,39.93
2019-03-22T22:16:41.286Z,33.30
2019-03-22T22:19:14.916Z,33.53
2019-03-22T22:21:47.426Z,35.10
2019-03-22T22:24:17.733Z,28.90
2019-03-22T22:26:49.635Z,33.80
2019-03-22T22:29:23.203Z,32.67
2019-03-22T22:31:56.871Z,31.67
2019-03-22T22:34:30.534Z,29.37
2019-03-22T22:37:01.581Z,34.73
2019-03-22T22:39:32.204Z,33.67
2019-03-22T22:42:04.767Z,34.50
2019-03-22T22:44:35.432Z,31.70
2019-03-22T22:47:06.122Z,40.03
2019-03-22T22:49:37.844Z,36.83
2019-03-22T22:52:10.548Z,33.40
2019-03-22T22:54:41.150Z,30.07
2019-03-22T22:57:12.998Z,31.00
2019-03-22T22:59:43.686Z,42.10
2019-03-22T23:02:16.152Z,32.87
2019-03-22T23:04:46.764Z,32.70
2019-03-22T23:07:17.610Z,36.83
2019-03-22T23:09:49.273Z,35.30
2019-03-22T23:12:20.364Z,43.67
2019-03-22T23:14:55.684Z,37.30
2019-03-22T23:17:26.330Z,30.73
2019-03-22T23:19:59.463Z,34.20
2019-03-22T23:22:30.112Z,31.97
2019-03-22T23:25:00.719Z,33.67
2019-03-22T23:27:31.412Z,36.70
2019-03-22T23:30:03.049Z,38.67
2019-03-22T23:32:33.628Z,37.30
2019-03-22T23:35:06.379Z,37.57
2019-03-22T23:37:39.914Z,37.13
2019-03-22T23:40:15.969Z,39.90
2019-03-22T23:42:47.778Z,32.13
2019-03-22T23:45:18.765Z,38.27
2019-03-22T23:47:49.386Z,33.73
2019-03-22T23:50:22.438Z,35.87
2019-03-22T23:52:54.064Z,36.13
2019-03-22T23:55:24.875Z,39.70
2019-03-22T23:57:57.271Z,33.13
